Bookmark and Share
Track history (hours):
 

Delta Lindsey

More information available from US FCC via Universal Licensing System and Coast Guard Vessel Documentation Center.

Last reported at 2014-Apr-24 03:05 UTC. Time now 2014-Apr-24 04:19 UTC.
Position N 33°44' W 118°17'.

MMSI: 233246442.

NotesDate/timePositionNaut miles runAvg speedWind from/ knotsBaromVisibWave heightAir tempDewpointWater temp
2014-Apr-24 03:05N 33°44' W 118°17'0 0.0
2014-Apr-23 22:23N 33°44' W 118°17'3 0.1
2014-Apr-22 11:05N 33°46' W 118°14'3 3.9
2014-Apr-22 10:22N 33°43' W 118°14'2 0.8
2014-Apr-22 07:33N 33°44' W 118°17'0 0.0
2014-Apr-22 06:24N 33°44' W 118°17'0 0.0
2014-Apr-22 03:18N 33°44' W 118°17'0 0.0
2014-Apr-22 02:33N 33°44' W 118°17'0 0.0
2014-Apr-22 01:33N 33°44' W 118°17'0 0.0
2014-Apr-21 23:33N 33°44' W 118°17'0 0.0
2014-Apr-21 22:33N 33°44' W 118°17'2 1.6
2014-Apr-21 21:33N 33°45' W 118°16'0 0.3
2014-Apr-21 20:31N 33°45' W 118°16'3 2.5
2014-Apr-21 19:29N 33°43' W 118°15'2 0.6
2014-Apr-21 16:26N 33°44' W 118°17'0 0.0
2014-Apr-21 13:27N 33°44' W 118°17'1 0.3
2014-Apr-21 11:31N 33°43' W 118°16'1 0.1
2014-Apr-21 06:11N 33°44' W 118°17'0 0.0
2014-Apr-21 05:30N 33°44' W 118°17'0 0.0
2014-Apr-21 04:33N 33°44' W 118°17'0 0.0
2014-Apr-21 03:33N 33°44' W 118°17'0 0.0
2014-Apr-21 02:16N 33°44' W 118°17'0 0.0
2014-Apr-21 01:33N 33°44' W 118°17'0 0.0
2014-Apr-21 00:32N 33°44' W 118°17'0 0.0
2014-Apr-20 23:33N 33°44' W 118°17'0 0.3
2014-Apr-20 22:33N 33°43' W 118°16'0 0.3
2014-Apr-20 21:29N 33°44' W 118°17'1 0.0
2014-Apr-19 23:03N 33°43' W 118°16'1 0.0
2014-Apr-17 19:06N 33°44' W 118°17'1 0.1
2014-Apr-17 12:23N 33°44' W 118°15'1 0.9
2014-Apr-17 11:32N 33°44' W 118°16'0 0.0
2014-Apr-17 03:09N 33°44' W 118°17'0 0.0
2014-Apr-17 02:31N 33°44' W 118°17'1 0.3
2014-Apr-16 23:32N 33°45' W 118°16'1 0.6
2014-Apr-16 22:26N 33°44' W 118°17'0 0.0
2014-Apr-16 12:15N 33°44' W 118°17'0 0.0
2014-Apr-16 10:21N 33°44' W 118°17'0 0.0
2014-Apr-16 08:18N 33°44' W 118°17'0 0.0
2014-Apr-16 07:33N 33°44' W 118°17'0 0.0
2014-Apr-16 06:28N 33°44' W 118°17'0 0.0
2014-Apr-16 05:32N 33°44' W 118°17'0 0.0
2014-Apr-16 04:33N 33°44' W 118°17'0 0.0
2014-Apr-16 03:32N 33°44' W 118°17'0 0.0
2014-Apr-16 02:33N 33°44' W 118°17'0 0.0
2014-Apr-16 01:33N 33°44' W 118°17'0 0.0
2014-Apr-16 00:33N 33°44' W 118°17'0 0.0
2014-Apr-15 23:33N 33°44' W 118°17'3 3.1
2014-Apr-15 22:34N 33°45' W 118°13'1 1.0
2014-Apr-15 21:33N 33°46' W 118°13'3 3.2
2014-Apr-15 20:33N 33°44' W 118°11'5 3.7
2014-Apr-15 19:20N 33°43' W 118°16'0 0.5
2014-Apr-15 18:33N 33°44' W 118°17'0 0.0
2014-Apr-15 16:33N 33°44' W 118°17'0 0.0
2014-Apr-15 15:19N 33°44' W 118°17'0 0.0
2014-Apr-15 10:34N 33°44' W 118°17'0 0.0
2014-Apr-15 09:34N 33°44' W 118°17'0 0.0
2014-Apr-15 08:34N 33°44' W 118°17'0 0.0
2014-Apr-15 07:34N 33°44' W 118°17'0 0.0
2014-Apr-15 06:34N 33°44' W 118°17'0 0.0
2014-Apr-15 05:34N 33°44' W 118°17'0 0.0
2014-Apr-15 03:34N 33°44' W 118°17'0 0.0
2014-Apr-15 00:34N 33°44' W 118°17'0 0.0
2014-Apr-14 23:34N 33°44' W 118°17'0 0.0
2014-Apr-14 22:34N 33°44' W 118°17'0 0.0
2014-Apr-14 21:34N 33°44' W 118°17'0 0.0
2014-Apr-14 20:34N 33°44' W 118°17'0 0.0
2014-Apr-14 19:34N 33°44' W 118°17'0 0.0
2014-Apr-14 18:34N 33°44' W 118°17'0 0.0
2014-Apr-14 15:33N 33°44' W 118°17'  

Dump ship's entire track history

sailing weather and tide predictions

Delta Lindsey — WDF5519 — position and weather